Terminal Aerodrome Forecast
Issued by NWS

Home | Current Version | Previous Version | Text Only | Print | Product List | Glossary On
Versions: 1 2 3 4 5 6 7 8 9 10 11 12 13 14 15 16 17 18
000
FTUS43 KGRB 011300 AAA
TAFCWA
TAF AMD
KCWA 011313Z 0113/0212 13006KT P6SM SCT007 OVC012
     FM011500 13007KT P6SM BKN015
     FM012000 14008KT P6SM BKN019 BKN080
     FM012200 15006KT 5SM BR SCT009 OVC015
      TEMPO 0122/0202 2SM -RA BR BKN009
     FM020200 13004KT 2SM -RA BR OVC008
     FM020600 14003KT 2SM -DZ BR OVC004=

USA.gov is the U.S. government's official web portal to all federal, state and local government web resources and services.